sensor_id;sensor_type;location;lat;lon;timestamp;P1;durP1;ratioP1;P2;durP2;ratioP2
14903;SDS011;7543;53.148;8.234;2022-08-04T00:01:05;256.47;;;236.80;;
14903;SDS011;7543;53.148;8.234;2022-08-04T00:03:38;262.65;;;243.15;;
14903;SDS011;7543;53.148;8.234;2022-08-04T00:06:10;296.38;;;274.42;;
14903;SDS011;7543;53.148;8.234;2022-08-04T00:08:44;269.67;;;248.98;;
14903;SDS011;7543;53.148;8.234;2022-08-04T00:11:14;266.05;;;245.65;;
14903;SDS011;7543;53.148;8.234;2022-08-04T00:13:50;284.05;;;263.08;;
14903;SDS011;7543;53.148;8.234;2022-08-04T00:16:22;306.23;;;283.42;;
14903;SDS011;7543;53.148;8.234;2022-08-04T00:18:53;267.83;;;247.27;;
14903;SDS011;7543;53.148;8.234;2022-08-04T00:21:23;263.42;;;243.68;;
14903;SDS011;7543;53.148;8.234;2022-08-04T00:23:54;224.60;;;207.23;;
14903;SDS011;7543;53.148;8.234;2022-08-04T00:26:22;231.88;;;214.07;;
14903;SDS011;7543;53.148;8.234;2022-08-04T00:28:50;215.13;;;198.60;;
14903;SDS011;7543;53.148;8.234;2022-08-04T00:31:19;209.25;;;193.40;;
14903;SDS011;7543;53.148;8.234;2022-08-04T00:33:49;188.33;;;173.80;;
14903;SDS011;7543;53.148;8.234;2022-08-04T00:36:17;177.00;;;163.17;;
14903;SDS011;7543;53.148;8.234;2022-08-04T00:38:46;199.75;;;184.13;;
14903;SDS011;7543;53.148;8.234;2022-08-04T00:41:19;214.67;;;198.20;;
14903;SDS011;7543;53.148;8.234;2022-08-04T00:43:56;189.73;;;174.95;;
14903;SDS011;7543;53.148;8.234;2022-08-04T00:46:47;204.80;;;188.57;;
14903;SDS011;7543;53.148;8.234;2022-08-04T00:49:34;198.63;;;183.27;;
14903;SDS011;7543;53.148;8.234;2022-08-04T00:52:32;191.63;;;176.65;;
14903;SDS011;7543;53.148;8.234;2022-08-04T00:55:04;195.23;;;179.65;;
14903;SDS011;7543;53.148;8.234;2022-08-04T00:57:52;167.23;;;154.02;;
14903;SDS011;7543;53.148;8.234;2022-08-04T01:00:37;170.47;;;157.07;;
14903;SDS011;7543;53.148;8.234;2022-08-04T01:03:13;175.45;;;161.73;;
14903;SDS011;7543;53.148;8.234;2022-08-04T01:05:49;154.95;;;143.13;;
14903;SDS011;7543;53.148;8.234;2022-08-04T01:08:26;152.05;;;139.68;;
14903;SDS011;7543;53.148;8.234;2022-08-04T01:11:03;150.63;;;138.95;;
14903;SDS011;7543;53.148;8.234;2022-08-04T01:13:46;155.37;;;143.23;;
14903;SDS011;7543;53.148;8.234;2022-08-04T01:16:23;143.40;;;132.20;;
14903;SDS011;7543;53.148;8.234;2022-08-04T01:18:54;158.43;;;145.90;;
14903;SDS011;7543;53.148;8.234;2022-08-04T01:21:35;143.80;;;132.52;;
14903;SDS011;7543;53.148;8.234;2022-08-04T01:24:28;128.77;;;118.83;;
14903;SDS011;7543;53.148;8.234;2022-08-04T01:27:04;149.73;;;138.30;;
14903;SDS011;7543;53.148;8.234;2022-08-04T01:29:36;133.63;;;123.05;;
14903;SDS011;7543;53.148;8.234;2022-08-04T01:32:06;143.77;;;132.45;;
14903;SDS011;7543;53.148;8.234;2022-08-04T01:34:35;138.30;;;127.15;;
14903;SDS011;7543;53.148;8.234;2022-08-04T01:37:14;130.67;;;121.00;;
14903;SDS011;7543;53.148;8.234;2022-08-04T01:39:50;129.77;;;119.43;;
14903;SDS011;7543;53.148;8.234;2022-08-04T01:42:24;126.45;;;117.07;;
14903;SDS011;7543;53.148;8.234;2022-08-04T01:44:54;135.63;;;125.05;;
14903;SDS011;7543;53.148;8.234;2022-08-04T01:47:23;125.90;;;116.20;;
14903;SDS011;7543;53.148;8.234;2022-08-04T01:49:54;132.70;;;122.50;;
14903;SDS011;7543;53.148;8.234;2022-08-04T01:52:32;132.20;;;121.97;;
14903;SDS011;7543;53.148;8.234;2022-08-04T01:55:02;143.95;;;132.93;;
14903;SDS011;7543;53.148;8.234;2022-08-04T01:57:32;155.80;;;143.43;;
14903;SDS011;7543;53.148;8.234;2022-08-04T02:00:02;149.55;;;137.68;;
14903;SDS011;7543;53.148;8.234;2022-08-04T02:02:32;128.43;;;118.43;;
14903;SDS011;7543;53.148;8.234;2022-08-04T02:05:00;135.17;;;125.07;;
14903;SDS011;7543;53.148;8.234;2022-08-04T02:07:31;142.90;;;131.90;;
14903;SDS011;7543;53.148;8.234;2022-08-04T02:10:11;144.00;;;133.00;;
14903;SDS011;7543;53.148;8.234;2022-08-04T02:12:51;128.67;;;118.80;;
14903;SDS011;7543;53.148;8.234;2022-08-04T02:15:27;135.73;;;125.47;;
14903;SDS011;7543;53.148;8.234;2022-08-04T02:17:58;131.50;;;122.17;;
14903;SDS011;7543;53.148;8.234;2022-08-04T02:24:19;135.57;;;125.73;;
14903;SDS011;7543;53.148;8.234;2022-08-04T02:26:48;130.93;;;121.10;;
14903;SDS011;7543;53.148;8.234;2022-08-04T02:29:18;135.60;;;125.87;;
14903;SDS011;7543;53.148;8.234;2022-08-04T02:31:50;133.57;;;122.97;;
14903;SDS011;7543;53.148;8.234;2022-08-04T02:34:21;133.95;;;124.35;;
14903;SDS011;7543;53.148;8.234;2022-08-04T02:36:52;135.38;;;125.60;;
14903;SDS011;7543;53.148;8.234;2022-08-04T02:39:22;130.15;;;120.60;;
14903;SDS011;7543;53.148;8.234;2022-08-04T02:41:50;131.53;;;122.03;;
14903;SDS011;7543;53.148;8.234;2022-08-04T02:44:20;129.27;;;119.90;;
14903;SDS011;7543;53.148;8.234;2022-08-04T02:46:51;134.00;;;124.37;;
14903;SDS011;7543;53.148;8.234;2022-08-04T02:49:20;132.97;;;123.47;;
14903;SDS011;7543;53.148;8.234;2022-08-04T02:51:50;131.27;;;121.77;;
14903;SDS011;7543;53.148;8.234;2022-08-04T02:54:22;136.00;;;125.90;;
14903;SDS011;7543;53.148;8.234;2022-08-04T02:56:55;138.63;;;127.83;;
14903;SDS011;7543;53.148;8.234;2022-08-04T02:59:25;134.27;;;124.50;;
14903;SDS011;7543;53.148;8.234;2022-08-04T03:01:55;136.47;;;126.43;;
14903;SDS011;7543;53.148;8.234;2022-08-04T03:04:26;137.10;;;126.70;;
14903;SDS011;7543;53.148;8.234;2022-08-04T03:07:19;128.05;;;118.40;;
14903;SDS011;7543;53.148;8.234;2022-08-04T03:16:07;127.47;;;118.10;;
14903;SDS011;7543;53.148;8.234;2022-08-04T03:22:08;128.97;;;119.23;;
14903;SDS011;7543;53.148;8.234;2022-08-04T03:25:09;126.50;;;117.60;;
14903;SDS011;7543;53.148;8.234;2022-08-04T03:27:59;129.00;;;119.70;;
14903;SDS011;7543;53.148;8.234;2022-08-04T03:33:58;131.73;;;122.23;;
14903;SDS011;7543;53.148;8.234;2022-08-04T03:36:40;124.93;;;116.00;;
14903;SDS011;7543;53.148;8.234;2022-08-04T03:45:36;126.60;;;117.43;;
14903;SDS011;7543;53.148;8.234;2022-08-04T03:51:26;135.77;;;126.17;;
14903;SDS011;7543;53.148;8.234;2022-08-04T03:54:28;132.63;;;123.23;;
14903;SDS011;7543;53.148;8.234;2022-08-04T03:57:12;130.07;;;120.97;;
14903;SDS011;7543;53.148;8.234;2022-08-04T04:00:04;133.53;;;123.47;;
14903;SDS011;7543;53.148;8.234;2022-08-04T04:02:51;130.33;;;120.47;;
14903;SDS011;7543;53.148;8.234;2022-08-04T04:05:39;128.87;;;119.27;;
14903;SDS011;7543;53.148;8.234;2022-08-04T04:08:27;133.73;;;124.43;;
14903;SDS011;7543;53.148;8.234;2022-08-04T04:11:10;133.50;;;124.03;;
14903;SDS011;7543;53.148;8.234;2022-08-04T04:13:56;134.63;;;124.90;;
14903;SDS011;7543;53.148;8.234;2022-08-04T04:16:37;135.10;;;125.60;;
14903;SDS011;7543;53.148;8.234;2022-08-04T04:19:15;133.00;;;123.60;;
14903;SDS011;7543;53.148;8.234;2022-08-04T04:22:07;137.63;;;128.07;;
14903;SDS011;7543;53.148;8.234;2022-08-04T04:24:56;132.97;;;123.63;;
14903;SDS011;7543;53.148;8.234;2022-08-04T04:27:36;134.83;;;125.40;;
14903;SDS011;7543;53.148;8.234;2022-08-04T04:30:10;136.90;;;127.03;;
14903;SDS011;7543;53.148;8.234;2022-08-04T04:32:51;129.87;;;120.20;;
14903;SDS011;7543;53.148;8.234;2022-08-04T04:35:32;125.23;;;116.17;;
14903;SDS011;7543;53.148;8.234;2022-08-04T04:38:08;135.10;;;125.47;;
14903;SDS011;7543;53.148;8.234;2022-08-04T04:41:04;124.57;;;115.83;;
14903;SDS011;7543;53.148;8.234;2022-08-04T04:43:53;128.67;;;119.60;;
14903;SDS011;7543;53.148;8.234;2022-08-04T04:46:32;132.77;;;123.50;;
14903;SDS011;7543;53.148;8.234;2022-08-04T04:49:07;128.40;;;119.07;;
14903;SDS011;7543;53.148;8.234;2022-08-04T04:51:48;123.40;;;113.68;;
14903;SDS011;7543;53.148;8.234;2022-08-04T04:54:20;132.33;;;122.90;;
14903;SDS011;7543;53.148;8.234;2022-08-04T04:56:55;136.37;;;126.77;;
14903;SDS011;7543;53.148;8.234;2022-08-04T04:59:32;126.60;;;117.80;;
14903;SDS011;7543;53.148;8.234;2022-08-04T05:05:24;130.00;;;120.30;;
14903;SDS011;7543;53.148;8.234;2022-08-04T05:07:59;120.93;;;112.43;;
14903;SDS011;7543;53.148;8.234;2022-08-04T05:10:50;126.38;;;117.47;;
14903;SDS011;7543;53.148;8.234;2022-08-04T05:13:31;127.40;;;118.13;;
14903;SDS011;7543;53.148;8.234;2022-08-04T05:16:06;130.40;;;121.33;;
14903;SDS011;7543;53.148;8.234;2022-08-04T05:18:38;130.93;;;122.00;;
14903;SDS011;7543;53.148;8.234;2022-08-04T05:21:14;129.93;;;121.10;;
14903;SDS011;7543;53.148;8.234;2022-08-04T05:23:55;119.03;;;110.90;;
14903;SDS011;7543;53.148;8.234;2022-08-04T05:26:29;133.25;;;123.85;;
14903;SDS011;7543;53.148;8.234;2022-08-04T05:29:01;120.35;;;111.70;;
14903;SDS011;7543;53.148;8.234;2022-08-04T05:31:33;127.23;;;118.23;;
14903;SDS011;7543;53.148;8.234;2022-08-04T05:34:04;123.88;;;114.90;;
14903;SDS011;7543;53.148;8.234;2022-08-04T05:36:37;125.60;;;116.78;;
14903;SDS011;7543;53.148;8.234;2022-08-04T05:39:09;122.75;;;114.07;;
14903;SDS011;7543;53.148;8.234;2022-08-04T05:41:39;129.50;;;120.68;;
14903;SDS011;7543;53.148;8.234;2022-08-04T05:44:08;125.03;;;116.00;;
14903;SDS011;7543;53.148;8.234;2022-08-04T05:46:38;124.85;;;115.97;;
14903;SDS011;7543;53.148;8.234;2022-08-04T05:49:06;132.50;;;123.25;;
14903;SDS011;7543;53.148;8.234;2022-08-04T05:51:35;126.30;;;117.80;;
14903;SDS011;7543;53.148;8.234;2022-08-04T05:54:04;133.98;;;124.47;;
14903;SDS011;7543;53.148;8.234;2022-08-04T05:56:33;122.35;;;113.95;;
14903;SDS011;7543;53.148;8.234;2022-08-04T05:59:02;120.47;;;112.10;;
14903;SDS011;7543;53.148;8.234;2022-08-04T06:01:30;121.13;;;112.90;;
14903;SDS011;7543;53.148;8.234;2022-08-04T06:04:00;119.68;;;110.80;;
14903;SDS011;7543;53.148;8.234;2022-08-04T06:06:29;116.00;;;107.60;;
14903;SDS011;7543;53.148;8.234;2022-08-04T06:08:58;123.72;;;115.13;;
14903;SDS011;7543;53.148;8.234;2022-08-04T06:11:26;120.85;;;112.40;;
14903;SDS011;7543;53.148;8.234;2022-08-04T06:13:56;119.43;;;110.93;;
14903;SDS011;7543;53.148;8.234;2022-08-04T06:16:28;119.80;;;110.90;;
14903;SDS011;7543;53.148;8.234;2022-08-04T06:19:02;125.15;;;116.25;;
14903;SDS011;7543;53.148;8.234;2022-08-04T06:21:31;128.10;;;118.60;;
14903;SDS011;7543;53.148;8.234;2022-08-04T06:24:00;125.57;;;116.18;;
14903;SDS011;7543;53.148;8.234;2022-08-04T06:26:31;128.52;;;119.22;;
14903;SDS011;7543;53.148;8.234;2022-08-04T06:29:00;114.05;;;105.88;;
14903;SDS011;7543;53.148;8.234;2022-08-04T06:31:30;124.18;;;114.82;;
14903;SDS011;7543;53.148;8.234;2022-08-04T06:34:10;119.97;;;110.85;;
14903;SDS011;7543;53.148;8.234;2022-08-04T06:36:40;122.55;;;113.53;;
14903;SDS011;7543;53.148;8.234;2022-08-04T06:39:09;133.90;;;124.22;;
14903;SDS011;7543;53.148;8.234;2022-08-04T06:41:38;126.00;;;116.70;;
14903;SDS011;7543;53.148;8.234;2022-08-04T06:44:07;121.07;;;112.40;;
14903;SDS011;7543;53.148;8.234;2022-08-04T06:46:36;127.43;;;118.38;;
14903;SDS011;7543;53.148;8.234;2022-08-04T06:49:07;126.20;;;116.80;;
14903;SDS011;7543;53.148;8.234;2022-08-04T06:51:36;125.80;;;116.38;;
14903;SDS011;7543;53.148;8.234;2022-08-04T06:54:05;109.20;;;101.45;;
14903;SDS011;7543;53.148;8.234;2022-08-04T06:56:33;122.50;;;113.43;;
14903;SDS011;7543;53.148;8.234;2022-08-04T06:59:02;119.53;;;110.55;;
14903;SDS011;7543;53.148;8.234;2022-08-04T07:01:31;116.60;;;108.25;;
14903;SDS011;7543;53.148;8.234;2022-08-04T07:03:59;123.15;;;114.22;;
14903;SDS011;7543;53.148;8.234;2022-08-04T07:06:27;117.32;;;108.72;;
14903;SDS011;7543;53.148;8.234;2022-08-04T07:08:57;126.18;;;116.10;;
14903;SDS011;7543;53.148;8.234;2022-08-04T07:11:26;121.53;;;112.63;;
14903;SDS011;7543;53.148;8.234;2022-08-04T07:13:54;135.98;;;125.90;;
14903;SDS011;7543;53.148;8.234;2022-08-04T07:16:24;134.20;;;124.10;;
14903;SDS011;7543;53.148;8.234;2022-08-04T07:18:52;132.63;;;122.88;;
14903;SDS011;7543;53.148;8.234;2022-08-04T07:21:21;142.60;;;131.90;;
14903;SDS011;7543;53.148;8.234;2022-08-04T07:23:49;144.63;;;134.13;;
14903;SDS011;7543;53.148;8.234;2022-08-04T07:26:19;131.70;;;122.18;;
14903;SDS011;7543;53.148;8.234;2022-08-04T07:28:53;132.45;;;122.88;;
14903;SDS011;7543;53.148;8.234;2022-08-04T07:31:22;129.45;;;119.72;;
14903;SDS011;7543;53.148;8.234;2022-08-04T07:33:51;127.03;;;117.82;;
14903;SDS011;7543;53.148;8.234;2022-08-04T07:36:19;114.50;;;106.20;;
14903;SDS011;7543;53.148;8.234;2022-08-04T07:38:47;128.15;;;118.53;;
14903;SDS011;7543;53.148;8.234;2022-08-04T07:41:18;109.43;;;101.47;;
14903;SDS011;7543;53.148;8.234;2022-08-04T07:43:49;120.05;;;111.35;;
14903;SDS011;7543;53.148;8.234;2022-08-04T07:46:18;112.57;;;104.55;;
14903;SDS011;7543;53.148;8.234;2022-08-04T07:48:46;133.98;;;124.43;;
14903;SDS011;7543;53.148;8.234;2022-08-04T07:51:14;117.72;;;109.25;;
14903;SDS011;7543;53.148;8.234;2022-08-04T07:53:43;135.23;;;124.10;;
14903;SDS011;7543;53.148;8.234;2022-08-04T07:56:11;155.70;;;144.52;;
14903;SDS011;7543;53.148;8.234;2022-08-04T07:58:41;125.75;;;116.90;;
14903;SDS011;7543;53.148;8.234;2022-08-04T08:01:09;138.18;;;128.30;;
14903;SDS011;7543;53.148;8.234;2022-08-04T08:03:38;132.15;;;122.60;;
14903;SDS011;7543;53.148;8.234;2022-08-04T08:06:06;131.48;;;121.85;;
14903;SDS011;7543;53.148;8.234;2022-08-04T08:08:36;158.02;;;146.80;;
14903;SDS011;7543;53.148;8.234;2022-08-04T08:11:04;156.77;;;145.63;;
14903;SDS011;7543;53.148;8.234;2022-08-04T08:13:33;168.10;;;156.23;;
14903;SDS011;7543;53.148;8.234;2022-08-04T08:16:02;171.65;;;159.50;;
14903;SDS011;7543;53.148;8.234;2022-08-04T08:18:31;158.73;;;147.73;;
14903;SDS011;7543;53.148;8.234;2022-08-04T08:20:59;156.45;;;145.38;;
14903;SDS011;7543;53.148;8.234;2022-08-04T08:23:28;204.32;;;190.40;;
14903;SDS011;7543;53.148;8.234;2022-08-04T08:25:57;180.73;;;168.32;;
14903;SDS011;7543;53.148;8.234;2022-08-04T08:28:25;202.88;;;189.18;;
14903;SDS011;7543;53.148;8.234;2022-08-04T08:30:54;184.68;;;172.25;;
14903;SDS011;7543;53.148;8.234;2022-08-04T08:33:23;190.82;;;177.75;;
14903;SDS011;7543;53.148;8.234;2022-08-04T08:35:54;209.32;;;195.45;;
14903;SDS011;7543;53.148;8.234;2022-08-04T08:38:34;210.20;;;196.30;;
14903;SDS011;7543;53.148;8.234;2022-08-04T08:44:16;206.95;;;193.25;;
14903;SDS011;7543;53.148;8.234;2022-08-04T08:47:01;221.43;;;206.90;;
14903;SDS011;7543;53.148;8.234;2022-08-04T08:49:47;217.02;;;202.65;;
14903;SDS011;7543;53.148;8.234;2022-08-04T08:52:23;202.15;;;188.95;;
14903;SDS011;7543;53.148;8.234;2022-08-04T08:55:01;201.90;;;188.52;;
14903;SDS011;7543;53.148;8.234;2022-08-04T08:57:41;193.20;;;180.50;;
14903;SDS011;7543;53.148;8.234;2022-08-04T09:00:17;192.10;;;179.52;;
14903;SDS011;7543;53.148;8.234;2022-08-04T09:02:59;202.27;;;188.65;;
14903;SDS011;7543;53.148;8.234;2022-08-04T09:06:03;193.10;;;180.35;;
14903;SDS011;7543;53.148;8.234;2022-08-04T09:11:49;191.18;;;178.30;;
14903;SDS011;7543;53.148;8.234;2022-08-04T09:14:23;187.93;;;175.68;;
14903;SDS011;7543;53.148;8.234;2022-08-04T09:16:56;186.13;;;173.80;;
14903;SDS011;7543;53.148;8.234;2022-08-04T09:19:31;181.05;;;169.07;;
14903;SDS011;7543;53.148;8.234;2022-08-04T09:22:06;191.77;;;179.20;;
14903;SDS011;7543;53.148;8.234;2022-08-04T09:24:40;188.63;;;176.13;;
14903;SDS011;7543;53.148;8.234;2022-08-04T09:27:17;139.10;;;129.68;;
14903;SDS011;7543;53.148;8.234;2022-08-04T09:29:46;148.15;;;138.45;;
14903;SDS011;7543;53.148;8.234;2022-08-04T09:32:22;143.80;;;134.07;;
14903;SDS011;7543;53.148;8.234;2022-08-04T09:34:56;133.32;;;124.57;;
14903;SDS011;7543;53.148;8.234;2022-08-04T09:37:32;149.98;;;139.75;;
14903;SDS011;7543;53.148;8.234;2022-08-04T09:40:06;139.85;;;130.63;;
14903;SDS011;7543;53.148;8.234;2022-08-04T09:42:43;135.70;;;126.32;;
14903;SDS011;7543;53.148;8.234;2022-08-04T09:45:18;129.35;;;120.82;;
14903;SDS011;7543;53.148;8.234;2022-08-04T09:47:52;137.75;;;128.43;;
14903;SDS011;7543;53.148;8.234;2022-08-04T09:50:25;131.98;;;123.20;;
14903;SDS011;7543;53.148;8.234;2022-08-04T09:53:05;148.18;;;138.60;;
14903;SDS011;7543;53.148;8.234;2022-08-04T09:55:47;132.00;;;123.30;;
14903;SDS011;7543;53.148;8.234;2022-08-04T09:58:27;137.45;;;128.38;;
14903;SDS011;7543;53.148;8.234;2022-08-04T10:01:07;131.77;;;123.20;;
14903;SDS011;7543;53.148;8.234;2022-08-04T10:03:37;118.55;;;110.78;;
14903;SDS011;7543;53.148;8.234;2022-08-04T10:06:09;117.47;;;109.88;;
14903;SDS011;7543;53.148;8.234;2022-08-04T10:08:58;114.78;;;107.25;;
14903;SDS011;7543;53.148;8.234;2022-08-04T10:11:34;119.70;;;111.72;;
14903;SDS011;7543;53.148;8.234;2022-08-04T10:14:17;113.28;;;105.95;;
14903;SDS011;7543;53.148;8.234;2022-08-04T10:16:53;111.07;;;103.78;;
14903;SDS011;7543;53.148;8.234;2022-08-04T10:19:25;107.57;;;100.10;;
14903;SDS011;7543;53.148;8.234;2022-08-04T10:21:58;113.22;;;105.53;;
14903;SDS011;7543;53.148;8.234;2022-08-04T10:24:38;106.82;;;99.70;;
14903;SDS011;7543;53.148;8.234;2022-08-04T10:27:16;111.57;;;104.13;;
14903;SDS011;7543;53.148;8.234;2022-08-04T10:29:49;111.13;;;103.75;;
14903;SDS011;7543;53.148;8.234;2022-08-04T10:32:19;99.50;;;92.82;;
14903;SDS011;7543;53.148;8.234;2022-08-04T10:34:56;105.55;;;98.68;;
14903;SDS011;7543;53.148;8.234;2022-08-04T10:37:30;105.03;;;98.07;;
14903;SDS011;7543;53.148;8.234;2022-08-04T10:40:04;102.03;;;95.30;;
14903;SDS011;7543;53.148;8.234;2022-08-04T10:42:55;99.40;;;92.53;;
14903;SDS011;7543;53.148;8.234;2022-08-04T10:45:31;103.88;;;97.03;;
14903;SDS011;7543;53.148;8.234;2022-08-04T10:48:05;106.18;;;99.15;;
14903;SDS011;7543;53.148;8.234;2022-08-04T10:50:35;108.38;;;101.18;;
14903;SDS011;7543;53.148;8.234;2022-08-04T10:53:06;106.22;;;99.18;;
14903;SDS011;7543;53.148;8.234;2022-08-04T10:55:41;104.32;;;97.53;;
14903;SDS011;7543;53.148;8.234;2022-08-04T10:58:15;100.75;;;94.15;;
14903;SDS011;7543;53.148;8.234;2022-08-04T11:00:46;99.93;;;93.43;;
14903;SDS011;7543;53.148;8.234;2022-08-04T11:03:20;103.55;;;96.55;;
14903;SDS011;7543;53.148;8.234;2022-08-04T11:05:51;103.32;;;96.53;;
14903;SDS011;7543;53.148;8.234;2022-08-04T11:08:22;103.45;;;96.28;;
14903;SDS011;7543;53.148;8.234;2022-08-04T11:10:58;103.53;;;96.72;;
14903;SDS011;7543;53.148;8.234;2022-08-04T11:13:28;100.88;;;94.10;;
14903;SDS011;7543;53.148;8.234;2022-08-04T11:16:01;100.47;;;93.78;;
14903;SDS011;7543;53.148;8.234;2022-08-04T11:18:34;97.15;;;90.75;;
14903;SDS011;7543;53.148;8.234;2022-08-04T11:21:09;103.05;;;96.07;;
14903;SDS011;7543;53.148;8.234;2022-08-04T11:23:41;98.57;;;92.15;;
14903;SDS011;7543;53.148;8.234;2022-08-04T11:26:14;90.72;;;84.78;;
14903;SDS011;7543;53.148;8.234;2022-08-04T11:28:48;98.38;;;91.80;;
14903;SDS011;7543;53.148;8.234;2022-08-04T11:31:20;107.57;;;100.55;;
14903;SDS011;7543;53.148;8.234;2022-08-04T11:33:51;103.78;;;96.82;;
14903;SDS011;7543;53.148;8.234;2022-08-04T11:36:25;103.70;;;96.75;;
14903;SDS011;7543;53.148;8.234;2022-08-04T11:38:58;99.13;;;92.63;;
14903;SDS011;7543;53.148;8.234;2022-08-04T11:41:36;99.78;;;93.18;;
14903;SDS011;7543;53.148;8.234;2022-08-04T11:44:09;98.93;;;92.38;;
14903;SDS011;7543;53.148;8.234;2022-08-04T11:46:39;96.72;;;90.35;;
14903;SDS011;7543;53.148;8.234;2022-08-04T11:49:09;96.35;;;89.93;;
14903;SDS011;7543;53.148;8.234;2022-08-04T11:51:41;94.95;;;88.65;;
14903;SDS011;7543;53.148;8.234;2022-08-04T11:54:10;91.43;;;85.35;;
14903;SDS011;7543;53.148;8.234;2022-08-04T11:56:40;95.30;;;88.88;;
14903;SDS011;7543;53.148;8.234;2022-08-04T11:59:08;96.82;;;89.82;;
14903;SDS011;7543;53.148;8.234;2022-08-04T12:01:40;96.53;;;90.00;;
14903;SDS011;7543;53.148;8.234;2022-08-04T12:04:16;97.13;;;90.72;;
14903;SDS011;7543;53.148;8.234;2022-08-04T12:06:48;89.03;;;83.05;;
14903;SDS011;7543;53.148;8.234;2022-08-04T12:09:21;85.55;;;79.60;;
14903;SDS011;7543;53.148;8.234;2022-08-04T12:11:59;87.85;;;82.05;;
14903;SDS011;7543;53.148;8.234;2022-08-04T12:14:35;85.72;;;79.68;;
14903;SDS011;7543;53.148;8.234;2022-08-04T12:17:07;81.68;;;75.68;;
14903;SDS011;7543;53.148;8.234;2022-08-04T12:19:38;85.68;;;79.65;;
14903;SDS011;7543;53.148;8.234;2022-08-04T12:22:10;82.55;;;76.82;;
14903;SDS011;7543;53.148;8.234;2022-08-04T12:24:42;89.65;;;83.63;;
14903;SDS011;7543;53.148;8.234;2022-08-04T12:27:14;89.80;;;83.82;;
14903;SDS011;7543;53.148;8.234;2022-08-04T12:29:44;90.47;;;84.28;;
14903;SDS011;7543;53.148;8.234;2022-08-04T12:32:16;82.50;;;76.97;;
14903;SDS011;7543;53.148;8.234;2022-08-04T12:34:48;86.60;;;80.47;;
14903;SDS011;7543;53.148;8.234;2022-08-04T12:37:26;88.25;;;82.20;;
14903;SDS011;7543;53.148;8.234;2022-08-04T12:40:02;86.72;;;80.47;;
14903;SDS011;7543;53.148;8.234;2022-08-04T12:42:40;84.68;;;79.03;;
14903;SDS011;7543;53.148;8.234;2022-08-04T12:45:11;83.57;;;77.90;;
14903;SDS011;7543;53.148;8.234;2022-08-04T12:47:40;90.50;;;84.38;;
14903;SDS011;7543;53.148;8.234;2022-08-04T12:50:09;89.75;;;83.40;;
14903;SDS011;7543;53.148;8.234;2022-08-04T12:52:41;89.50;;;83.47;;
14903;SDS011;7543;53.148;8.234;2022-08-04T12:55:09;90.80;;;84.80;;
14903;SDS011;7543;53.148;8.234;2022-08-04T12:57:40;89.63;;;83.35;;
14903;SDS011;7543;53.148;8.234;2022-08-04T13:00:09;87.68;;;81.88;;
14903;SDS011;7543;53.148;8.234;2022-08-04T13:02:40;91.78;;;85.68;;
14903;SDS011;7543;53.148;8.234;2022-08-04T13:05:10;90.47;;;84.15;;
14903;SDS011;7543;53.148;8.234;2022-08-04T13:07:40;93.10;;;86.93;;
14903;SDS011;7543;53.148;8.234;2022-08-04T13:10:11;84.25;;;78.15;;
14903;SDS011;7543;53.148;8.234;2022-08-04T13:12:43;89.50;;;83.35;;
14903;SDS011;7543;53.148;8.234;2022-08-04T13:15:17;94.78;;;88.18;;
14903;SDS011;7543;53.148;8.234;2022-08-04T13:17:49;90.10;;;83.85;;
14903;SDS011;7543;53.148;8.234;2022-08-04T13:20:23;88.22;;;82.13;;
14903;SDS011;7543;53.148;8.234;2022-08-04T13:22:59;94.00;;;87.75;;
14903;SDS011;7543;53.148;8.234;2022-08-04T13:25:31;86.90;;;81.10;;
14903;SDS011;7543;53.148;8.234;2022-08-04T13:28:02;99.75;;;93.05;;
14903;SDS011;7543;53.148;8.234;2022-08-04T13:30:30;96.35;;;89.57;;
14903;SDS011;7543;53.148;8.234;2022-08-04T13:33:00;92.13;;;85.47;;
14903;SDS011;7543;53.148;8.234;2022-08-04T13:35:29;98.97;;;92.38;;
14903;SDS011;7543;53.148;8.234;2022-08-04T13:38:00;102.88;;;95.97;;
14903;SDS011;7543;53.148;8.234;2022-08-04T13:40:28;102.82;;;95.85;;
14903;SDS011;7543;53.148;8.234;2022-08-04T13:42:56;98.47;;;92.07;;
14903;SDS011;7543;53.148;8.234;2022-08-04T13:45:26;104.03;;;96.57;;
14903;SDS011;7543;53.148;8.234;2022-08-04T13:47:56;110.95;;;103.47;;
14903;SDS011;7543;53.148;8.234;2022-08-04T13:50:27;109.75;;;102.43;;
14903;SDS011;7543;53.148;8.234;2022-08-04T13:52:57;110.07;;;102.78;;
14903;SDS011;7543;53.148;8.234;2022-08-04T13:55:27;119.65;;;111.32;;
14903;SDS011;7543;53.148;8.234;2022-08-04T13:57:58;129.18;;;120.63;;
14903;SDS011;7543;53.148;8.234;2022-08-04T14:00:41;151.30;;;140.85;;
14903;SDS011;7543;53.148;8.234;2022-08-04T14:03:13;146.40;;;136.40;;
14903;SDS011;7543;53.148;8.234;2022-08-04T14:08:41;137.48;;;127.85;;
14903;SDS011;7543;53.148;8.234;2022-08-04T14:11:12;143.32;;;133.75;;
14903;SDS011;7543;53.148;8.234;2022-08-04T14:13:41;150.02;;;139.93;;
14903;SDS011;7543;53.148;8.234;2022-08-04T14:16:14;146.38;;;136.48;;
14903;SDS011;7543;53.148;8.234;2022-08-04T14:18:43;160.45;;;149.75;;
14903;SDS011;7543;53.148;8.234;2022-08-04T14:21:12;169.65;;;158.48;;
14903;SDS011;7543;53.148;8.234;2022-08-04T14:23:43;171.60;;;160.05;;
14903;SDS011;7543;53.148;8.234;2022-08-04T14:26:13;163.73;;;152.85;;
14903;SDS011;7543;53.148;8.234;2022-08-04T14:28:43;167.43;;;155.40;;
14903;SDS011;7543;53.148;8.234;2022-08-04T14:31:15;173.02;;;161.30;;
14903;SDS011;7543;53.148;8.234;2022-08-04T14:33:45;159.98;;;149.30;;
14903;SDS011;7543;53.148;8.234;2022-08-04T14:36:13;170.20;;;158.90;;
14903;SDS011;7543;53.148;8.234;2022-08-04T14:38:50;176.27;;;164.45;;
14903;SDS011;7543;53.148;8.234;2022-08-04T14:41:21;163.75;;;152.90;;
14903;SDS011;7543;53.148;8.234;2022-08-04T14:43:51;175.00;;;163.43;;
14903;SDS011;7543;53.148;8.234;2022-08-04T14:46:22;189.48;;;176.80;;
14903;SDS011;7543;53.148;8.234;2022-08-04T14:49:01;176.05;;;163.88;;
14903;SDS011;7543;53.148;8.234;2022-08-04T14:51:34;170.73;;;159.25;;
14903;SDS011;7543;53.148;8.234;2022-08-04T14:54:05;183.18;;;170.93;;
14903;SDS011;7543;53.148;8.234;2022-08-04T14:56:33;191.18;;;178.43;;
14903;SDS011;7543;53.148;8.234;2022-08-04T14:59:03;193.30;;;180.43;;
14903;SDS011;7543;53.148;8.234;2022-08-04T15:01:34;195.73;;;182.52;;
14903;SDS011;7543;53.148;8.234;2022-08-04T15:04:03;199.85;;;186.55;;
14903;SDS011;7543;53.148;8.234;2022-08-04T15:06:33;199.98;;;186.63;;
14903;SDS011;7543;53.148;8.234;2022-08-04T15:09:03;184.20;;;172.00;;
14903;SDS011;7543;53.148;8.234;2022-08-04T15:11:33;196.80;;;183.70;;
14903;SDS011;7543;53.148;8.234;2022-08-04T15:14:02;190.85;;;178.07;;
14903;SDS011;7543;53.148;8.234;2022-08-04T15:16:32;192.73;;;179.73;;
14903;SDS011;7543;53.148;8.234;2022-08-04T15:19:01;191.18;;;178.48;;
14903;SDS011;7543;53.148;8.234;2022-08-04T15:21:29;192.05;;;179.25;;
14903;SDS011;7543;53.148;8.234;2022-08-04T15:23:58;191.63;;;178.70;;
14903;SDS011;7543;53.148;8.234;2022-08-04T15:26:27;190.55;;;177.73;;
14903;SDS011;7543;53.148;8.234;2022-08-04T15:29:01;182.07;;;169.85;;